Time;durP1;ratioP1;P1;durP2;ratioP2;P2;SDS_P1;SDS_P2;PMS_P1;PMS_P2;Temp;Humidity;BMP_temperature;BMP_pressure;BME280_temperature;BME280_humidity;BME280_pressure;Samples;Min_cycle;Max_cycle;Signal;HPM_P1;HPM_P2
2023/09/04 00:01:27;;;;;;;;;;;;;;;15.26;100;102909.4;;;;-81
2023/09/04 00:06:34;;;;;;;;;;;;;;;15.26;100;102911.5;;;;-81
2023/09/04 00:11:25;;;;;;;;;;;;;;;15.2;100;102908.9;;;;-82
2023/09/04 00:16:45;;;;;;;;;;;;;;;15.12;100;102908.1;;;;-82
2023/09/04 00:21:36;;;;;;;;;;;;;;;14.96;99.10449;102900.2;;;;-81
2023/09/04 00:26:27;;;;;;;;;;;;;;;14.84;93.27051;102906.9;;;;-84
2023/09/04 00:26:59;;;;;;;5.9;4.4;;;;;;;;;;;;;-84
2023/09/04 00:31:23;;;;;;;;;;;;;;;14.76;96.64551;102906.4;;;;-82
2023/09/04 00:36:21;;;;;;;;;;;;;;;14.68;97.23926;102914;;;;-81
2023/09/04 00:41:29;;;;;;;;;;;;;;;14.61;97.66992;102908.1;;;;-81
2023/09/04 00:46:22;;;;;;;;;;;;;;;14.52;96.27246;102902.7;;;;-82
2023/09/04 00:51:23;;;;;;;;;;;;;;;14.41;96.57031;102895.9;;;;-81
2023/09/04 00:56:22;;;;;;;;;;;;;;;14.34;93.46582;102902.4;;;;-81
2023/09/04 00:56:41;;;;;;;6.2;4.6;;;;;;;;;;;;;-81
2023/09/04 01:01:25;;;;;;;;;;;;;;;14.32;100;102907.6;;;;-81
2023/09/04 01:06:21;;;;;;;;;;;;;;;14.25;100;102898.5;;;;-80
2023/09/04 01:11:29;;;;;;;;;;;;;;;14.23;100;102901.7;;;;-83
2023/09/04 01:16:29;;;;;;;;;;;;;;;14.14;100;102904.8;;;;-80
2023/09/04 01:26:29;;;;;;;;;;;;;;;13.97;94.98535;102897.2;;;;-83
2023/09/04 01:26:58;;;;;;;5.7;3.6;;;;;;;;;;;;;-83
2023/09/04 01:31:33;;;;;;;;;;;;;;;13.94;100;102895.2;;;;-83
2023/09/04 01:36:41;;;;;;;;;;;;;;;13.85;100;102894.5;;;;-82
2023/09/04 01:41:30;;;;;;;;;;;;;;;13.8;100;102896.8;;;;-82
2023/09/04 01:46:29;;;;;;;;;;;;;;;13.75;100;102891.9;;;;-81
2023/09/04 01:51:22;;;;;;;;;;;;;;;13.61;100;102884.1;;;;-81
2023/09/04 02:05:06;;;;;;;;;;;;;;;13.4;99.13965;102893.1;;;;-83
2023/09/04 02:09:55;;;;;;;;;;;;;;;13.36;99.14258;102896.2;;;;-82
2023/09/04 02:14:59;;;;;;;;;;;;;;;13.32;100;102889.3;;;;-80
2023/09/04 02:20:08;;;;;;;;;;;;;;;13.28;98.55078;102895;;;;-82
2023/09/04 02:36:15;;;;;;;;;;;;;;;13.22;99.95313;102870.9;;;;-81
2023/09/04 02:41:23;;;;;;;;;;;;;;;13.24;100;102869.5;;;;-82
2023/09/04 02:46:10;;;;;;;;;;;;;;;13.18;100;102858.4;;;;-82
2023/09/04 02:51:15;;;;;;;;;;;;;;;13.15;100;102851.5;;;;-80
2023/09/04 02:56:05;;;;;;;;;;;;;;;13.1;100;102850.9;;;;-81
2023/09/04 02:56:38;;;;;;;8.9;5.3;;;;;;;;;;;;;-84
2023/09/04 03:01:08;;;;;;;;;;;;;;;13.09;100;102850.2;;;;-82
2023/09/04 03:06:16;;;;;;;;;;;;;;;13.04;100;102848;;;;-82
2023/09/04 03:11:19;;;;;;;;;;;;;;;13.02;100;102852.6;;;;-82
2023/09/04 03:16:18;;;;;;;;;;;;;;;12.99;100;102845.9;;;;-81
2023/09/04 03:21:09;;;;;;;;;;;;;;;12.96;100;102845.6;;;;-82
2023/09/04 03:26:13;;;;;;;;;;;;;;;12.93;100;102841;;;;-84
2023/09/04 03:26:42;;;;;;;8.5;5.9;;;;;;;;;;;;;-83
2023/09/04 03:31:18;;;;;;;;;;;;;;;12.91;100;102840.3;;;;-85
2023/09/04 03:36:13;;;;;;;;;;;;;;;12.88;100;102844.5;;;;-82
2023/09/04 03:41:10;;;;;;;;;;;;;;;12.79;100;102832.4;;;;-81
2023/09/04 03:46:06;;;;;;;;;;;;;;;12.83;100;102842.4;;;;-83
2023/09/04 03:51:28;;;;;;;;;;;;;;;12.81;100;102835.8;;;;-82
2023/09/04 03:56:15;;;;;;;;;;;;;;;12.73;100;102825.4;;;;-81
2023/09/04 03:56:40;;;;;;;8.8;6.2;;;;;;;;;;;;;-83
2023/09/04 04:01:10;;;;;;;;;;;;;;;12.79;100;102833.9;;;;-83
2023/09/04 04:09:47;;;;;;;;;;;;;;;12.83;100;102825.5;;;;-82
2023/09/04 04:14:50;;;;;;;;;;;;;;;12.95;100;102827.4;;;;-85
2023/09/04 04:19:43;;;;;;;;;;;;;;;13.04;100;102818.8;;;;-83
2023/09/04 04:24:40;;;;;;;;;;;;;;;13.05;100;102809.8;;;;-86
2023/09/04 04:26:46;;;;;;;9.5;6.6;;;;;;;;;;;;;-81
2023/09/04 04:29:46;;;;;;;;;;;;;;;13.31;100;102801.9;;;;-81
2023/09/04 04:34:43;;;;;;;;;;;;;;;13.33;100;102799.4;;;;-82
2023/09/04 04:39:38;;;;;;;;;;;;;;;13.35;100;102793;;;;-84
2023/09/04 04:44:39;;;;;;;;;;;;;;;13.53;100;102792;;;;-82
2023/09/04 04:55:00;;;;;;;;;;;;;;;13.47;100;102785.4;;;;-83
2023/09/04 04:56:43;;;;;;;9.7;6.6;;;;;;;;;;;;;-82
2023/09/04 04:59:50;;;;;;;;;;;;;;;13.58;100;102787.1;;;;-82
2023/09/04 05:04:45;;;;;;;;;;;;;;;13.48;100;102797.7;;;;-83
2023/09/04 05:09:36;;;;;;;;;;;;;;;13.45;100;102793.6;;;;-82
2023/09/04 05:14:47;;;;;;;;;;;;;;;13.48;100;102788.7;;;;-82
2023/09/04 05:19:45;;;;;;;;;;;;;;;13.47;100;102782;;;;-83
2023/09/04 05:24:51;;;;;;;;;;;;;;;13.55;100;102792.5;;;;-83
2023/09/04 05:26:45;;;;;;;10.9;7.7;;;;;;;;;;;;;-81
2023/09/04 05:29:51;;;;;;;;;;;;;;;13.57;100;102795.1;;;;-81
2023/09/04 05:35:00;;;;;;;;;;;;;;;13.58;100;102801.4;;;;-79
2023/09/04 05:40:00;;;;;;;;;;;;;;;13.61;100;102811.4;;;;-83
2023/09/04 05:44:42;;;;;;;;;;;;;;;13.68;100;102820.4;;;;-81
2023/09/04 05:49:41;;;;;;;;;;;;;;;13.8;100;102817.7;;;;-83
2023/09/04 05:54:41;;;;;;;;;;;;;;;13.98;100;102814.5;;;;-80
2023/09/04 05:56:55;;;;;;;14.1;9.2;;;;;;;;;;;;;-81
2023/09/04 05:59:36;;;;;;;;;;;;;;;14.64;100;102817.7;;;;-82
2023/09/04 06:04:44;;;;;;;;;;;;;;;14.92;100;102819.4;;;;-81
2023/09/04 06:09:38;;;;;;;;;;;;;;;15.22;100;102819;;;;-82
2023/09/04 06:14:40;;;;;;;;;;;;;;;15.54;100;102820.2;;;;-83
2023/09/04 06:19:39;;;;;;;;;;;;;;;16.11;100;102819.4;;;;-82
2023/09/04 06:24:42;;;;;;;;;;;;;;;16.7;100;102818;;;;-84
2023/09/04 06:26:50;;;;;;;11.2;8.6;;;;;;;;;;;;;-83
2023/09/04 06:35:06;;;;;;;;;;;;;;;17.87;95.79102;102817.3;;;;-85
2023/09/04 06:39:42;;;;;;;;;;;;;;;18.08;94.3457;102814.3;;;;-82
2023/09/04 06:44:39;;;;;;;;;;;;;;;18.39;92.4834;102808.2;;;;-82
2023/09/04 06:49:48;;;;;;;;;;;;;;;18.69;89.76855;102808.9;;;;-84
2023/09/04 06:54:43;;;;;;;;;;;;;;;18.99;88.25195;102810.8;;;;-83
2023/09/04 06:57:09;;;;;;;8.7;6.7;;;;;;;;;;;;;-82
2023/09/04 06:59:38;;;;;;;;;;;;;;;19.32;87.50879;102805.3;;;;-82
2023/09/04 07:04:54;;;;;;;;;;;;;;;19.67;85.50195;102800;;;;-83
2023/09/04 07:09:50;;;;;;;;;;;;;;;19.85;80.73535;102785.7;;;;-83
2023/09/04 07:26:17;;;;;;;;;;;;;;;19.91;76.92285;102778.2;;;;-84
2023/09/04 07:27:00;;;;;;;10.4;6.1;;;;;;;;;;;;;-83
2023/09/04 07:31:16;;;;;;;;;;;;;;;19.69;77.99512;102777.1;;;;-83
2023/09/04 07:36:07;;;;;;;;;;;;;;;19.56;75.54199;102776.1;;;;-82
2023/09/04 07:41:15;;;;;;;;;;;;;;;19.44;73.9502;102779.5;;;;-84
2023/09/04 07:46:10;;;;;;;;;;;;;;;19.48;73.43555;102780.3;;;;-83
2023/09/04 07:51:26;;;;;;;;;;;;;;;19.57;73.38281;102785.3;;;;-84
2023/09/04 07:56:16;;;;;;;;;;;;;;;19.88;73.8623;102785.7;;;;-84
2023/09/04 07:57:19;;;;;;;6.8;4;;;;;;;;;;;;;-82
2023/09/04 08:01:15;;;;;;;;;;;;;;;20.03;69.8418;102793.5;;;;-85
2023/09/04 08:06:29;;;;;;;;;;;;;;;20.16;68.8418;102794.7;;;;-85
2023/09/04 08:11:07;;;;;;;;;;;;;;;20.36;69.37207;102799.3;;;;-84
2023/09/04 08:16:08;;;;;;;;;;;;;;;20.38;68.06738;102797.6;;;;-85
2023/09/04 08:21:26;;;;;;;;;;;;;;;20.39;67.49121;102799.4;;;;-84
2023/09/04 08:26:13;;;;;;;;;;;;;;;20.46;68.22949;102797.3;;;;-83
2023/09/04 08:27:09;;;;;;;6.1;3.9;;;;;;;;;;;;;-85
2023/09/04 08:31:27;;;;;;;;;;;;;;;20.61;67.31934;102794.3;;;;-84
2023/09/04 08:36:21;;;;;;;;;;;;;;;20.78;66.95898;102785.6;;;;-83
2023/09/04 08:41:18;;;;;;;;;;;;;;;21.02;65.75391;102781.1;;;;-83
2023/09/04 08:45:59;;;;;;;;;;;;;;;21.04;65.0625;102789.7;;;;-84
2023/09/04 08:51:08;;;;;;;;;;;;;;;21.29;65.55469;102784.5;;;;-83
2023/09/04 09:11:38;;;;;;;;;;;;;;;21.96;63.0293;102766;;;;-81
2023/09/04 09:16:29;;;;;;;;;;;;;;;22.18;62.04297;102765.9;;;;-81
2023/09/04 09:21:39;;;;;;;;;;;;;;;22.34;60.71582;102758.9;;;;-83
2023/09/04 09:26:37;;;;;;;;;;;;;;;22.54;60.9375;102757.1;;;;-81
2023/09/04 09:27:14;;;;;;;10.3;6.1;;;;;;;;;;;;;-81
2023/09/04 09:31:31;;;;;;;;;;;;;;;22.48;61.21484;102759.9;;;;-82
2023/09/04 09:36:28;;;;;;;;;;;;;;;22.49;60.71387;102764.9;;;;-81
2023/09/04 09:41:29;;;;;;;;;;;;;;;22.87;60.04395;102759.1;;;;-80
2023/09/04 09:46:30;;;;;;;;;;;;;;;23.34;59.5;102750.4;;;;-82
2023/09/04 09:51:28;;;;;;;;;;;;;;;23.28;58.99805;102754.2;;;;-80
2023/09/04 09:56:27;;;;;;;;;;;;;;;23.34;58.65137;102744.3;;;;-80
2023/09/04 09:57:17;;;;;;;8.3;5.6;;;;;;;;;;;;;-81
2023/09/04 10:01:32;;;;;;;;;;;;;;;23.6;59.38379;102735.9;;;;-82
2023/09/04 10:06:34;;;;;;;;;;;;;;;23.59;58.75195;102735.2;;;;-80
2023/09/04 10:11:27;;;;;;;;;;;;;;;23.8;58.24121;102727.6;;;;-82
2023/09/04 10:16:31;;;;;;;;;;;;;;;23.95;57.43457;102735.1;;;;-82
2023/09/04 10:21:29;;;;;;;;;;;;;;;23.82;58.4834;102730.6;;;;-83
2023/09/04 10:26:35;;;;;;;;;;;;;;;24.07;57.94336;102722.8;;;;-81
2023/09/04 10:27:22;;;;;;;11.9;6.9;;;;;;;;;;;;;-82
2023/09/04 10:31:27;;;;;;;;;;;;;;;24.21;57.83301;102716.1;;;;-80
2023/09/04 10:36:27;;;;;;;;;;;;;;;24.49;56.96094;102714.3;;;;-79
2023/09/04 10:41:29;;;;;;;;;;;;;;;24.4;56.17969;102701.2;;;;-82
2023/09/04 10:46:29;;;;;;;;;;;;;;;24.65;57.17773;102702.9;;;;-81
2023/09/04 10:51:50;;;;;;;;;;;;;;;24.94;56.40918;102703.9;;;;-82
2023/09/04 10:56:26;;;;;;;;;;;;;;;25.08;56.19531;102703.7;;;;-82
2023/09/04 10:57:22;;;;;;;10.3;7.5;;;;;;;;;;;;;-82
2023/09/04 11:01:40;;;;;;;;;;;;;;;25.3;55.08203;102697.3;;;;-82
2023/09/04 11:06:26;;;;;;;;;;;;;;;25.52;53.93262;102698.3;;;;-82
2023/09/04 11:11:32;;;;;;;;;;;;;;;25.69;53.99902;102689.6;;;;-82
2023/09/04 11:16:28;;;;;;;;;;;;;;;25.94;54.08691;102684.9;;;;-81
2023/09/04 11:21:33;;;;;;;;;;;;;;;26.01;52.10645;102680.7;;;;-80
2023/09/04 11:26:26;;;;;;;;;;;;;;;25.9;53.77051;102678.3;;;;-81
2023/09/04 11:27:28;;;;;;;10.4;7.3;;;;;;;;;;;;;-82
2023/09/04 11:31:27;;;;;;;;;;;;;;;25.94;52.89648;102672.9;;;;-81
2023/09/04 11:36:27;;;;;;;;;;;;;;;26.05;54.23828;102669;;;;-80
2023/09/04 11:41:26;;;;;;;;;;;;;;;26.09;53.52539;102669.5;;;;-81
2023/09/04 11:46:27;;;;;;;;;;;;;;;25.69;53.53711;102667;;;;-81
2023/09/04 11:51:27;;;;;;;;;;;;;;;25.74;53.72754;102662.3;;;;-80
2023/09/04 11:56:26;;;;;;;;;;;;;;;25.73;52.41016;102659.4;;;;-79
2023/09/04 11:57:32;;;;;;;9.6;7.3;;;;;;;;;;;;;-82
2023/09/04 12:01:26;;;;;;;;;;;;;;;25.87;53.50098;102659.8;;;;-80
2023/09/04 12:06:28;;;;;;;;;;;;;;;26.09;52.46387;102665.4;;;;-81
2023/09/04 12:11:27;;;;;;;;;;;;;;;26.09;52.83301;102660.7;;;;-81
2023/09/04 12:16:27;;;;;;;;;;;;;;;26.41;53.29883;102645.5;;;;-77
2023/09/04 12:21:31;;;;;;;;;;;;;;;26.73;51.92383;102645.5;;;;-80
2023/09/04 12:26:33;;;;;;;;;;;;;;;26.94;52.01758;102642.6;;;;-80
2023/09/04 12:27:39;;;;;;;10.7;7.2;;;;;;;;;;;;;-80
2023/09/04 12:31:29;;;;;;;;;;;;;;;27.2;50.68066;102634.3;;;;-81
2023/09/04 12:36:28;;;;;;;;;;;;;;;27.46;49.875;102620.4;;;;-80
2023/09/04 12:41:27;;;;;;;;;;;;;;;27.12;49.19922;102618.4;;;;-78
2023/09/04 12:46:27;;;;;;;;;;;;;;;27.32;48.67578;102612.2;;;;-79
2023/09/04 12:51:28;;;;;;;;;;;;;;;27.56;48.83008;102615.9;;;;-80
2023/09/04 12:56:32;;;;;;;;;;;;;;;27.3;48.79004;102605.7;;;;-80
2023/09/04 12:57:42;;;;;;;8.5;6.5;;;;;;;;;;;;;-79
2023/09/04 13:01:26;;;;;;;;;;;;;;;27.33;48.41016;102597.1;;;;-77
2023/09/04 13:06:32;;;;;;;;;;;;;;;27.16;48.33398;102591.3;;;;-78
2023/09/04 13:11:26;;;;;;;;;;;;;;;26.99;48.90625;102583.6;;;;-79
2023/09/04 13:16:27;;;;;;;;;;;;;;;27.1;48.08398;102577;;;;-78
2023/09/04 13:21:26;;;;;;;;;;;;;;;26.99;47.33105;102577.5;;;;-79
2023/09/04 13:26:27;;;;;;;;;;;;;;;27.11;47.875;102573.1;;;;-80
2023/09/04 13:27:47;;;;;;;7.5;5.7;;;;;;;;;;;;;-78
2023/09/04 13:31:26;;;;;;;;;;;;;;;27.09;48.26855;102563.6;;;;-79
2023/09/04 13:36:28;;;;;;;;;;;;;;;27.28;47.40723;102568.2;;;;-79
2023/09/04 13:41:26;;;;;;;;;;;;;;;27.12;46.39258;102555.1;;;;-79
2023/09/04 13:46:26;;;;;;;;;;;;;;;27.47;46.14941;102547;;;;-80
2023/09/04 13:51:27;;;;;;;;;;;;;;;27.85;48.0127;102542.4;;;;-78
2023/09/04 13:56:29;;;;;;;;;;;;;;;28.35;47.22754;102536.8;;;;-79
2023/09/04 13:57:51;;;;;;;7.8;4.6;;;;;;;;;;;;;-80
2023/09/04 14:01:26;;;;;;;;;;;;;;;28.32;45.59668;102538.1;;;;-78
2023/09/04 14:06:26;;;;;;;;;;;;;;;28.31;47.51465;102535.7;;;;-79
2023/09/04 14:11:27;;;;;;;;;;;;;;;28.46;47.2168;102534.6;;;;-80
2023/09/04 14:16:31;;;;;;;;;;;;;;;28.59;47.04395;102520;;;;-80
2023/09/04 14:21:26;;;;;;;;;;;;;;;28.66;45.51367;102519.4;;;;-81
2023/09/04 14:26:28;;;;;;;;;;;;;;;28.91;46.19141;102511.8;;;;-80
2023/09/04 14:27:56;;;;;;;5;3.8;;;;;;;;;;;;;-78
2023/09/04 14:31:27;;;;;;;;;;;;;;;28.63;44.88281;102505.5;;;;-80
2023/09/04 14:36:26;;;;;;;;;;;;;;;28.55;45.18848;102501.1;;;;-81
2023/09/04 14:41:28;;;;;;;;;;;;;;;28.45;45.35254;102514.5;;;;-80
2023/09/04 14:46:30;;;;;;;;;;;;;;;28.36;45.41406;102505.8;;;;-79
2023/09/04 14:51:26;;;;;;;;;;;;;;;28.56;47.34375;102489.8;;;;-79
2023/09/04 14:56:28;;;;;;;;;;;;;;;28.16;46.41797;102491.5;;;;-79
2023/09/04 14:58:01;;;;;;;4.6;3.8;;;;;;;;;;;;;-80
2023/09/04 15:01:28;;;;;;;;;;;;;;;27.99;47.10938;102480.5;;;;-79
2023/09/04 15:06:34;;;;;;;;;;;;;;;27.92;50.5293;102470.1;;;;-79
2023/09/04 15:11:27;;;;;;;;;;;;;;;27.76;46.46875;102471.1;;;;-82
2023/09/04 15:16:27;;;;;;;;;;;;;;;27.79;46.54297;102459.6;;;;-79
2023/09/04 15:21:26;;;;;;;;;;;;;;;27.87;46.26074;102468.5;;;;-80
2023/09/04 15:26:29;;;;;;;;;;;;;;;27.94;45.89551;102473.3;;;;-81
2023/09/04 15:28:07;;;;;;;5.4;3.2;;;;;;;;;;;;;-80
2023/09/04 15:31:28;;;;;;;;;;;;;;;27.96;44.34961;102472.5;;;;-82
2023/09/04 15:36:28;;;;;;;;;;;;;;;28.15;45.91602;102463.7;;;;-79
2023/09/04 15:41:27;;;;;;;;;;;;;;;28.23;44.22559;102457.8;;;;-81
2023/09/04 15:46:29;;;;;;;;;;;;;;;28.29;45.11621;102447.5;;;;-80
2023/09/04 15:51:26;;;;;;;;;;;;;;;28.38;43.84473;102449;;;;-81
2023/09/04 15:56:26;;;;;;;;;;;;;;;28.26;44.9502;102443.1;;;;-81
2023/09/04 15:58:13;;;;;;;4.1;2.5;;;;;;;;;;;;;-80
2023/09/04 16:01:31;;;;;;;;;;;;;;;28.07;44.11719;102444.1;;;;-80
2023/09/04 16:06:26;;;;;;;;;;;;;;;27.73;44.58398;102427.9;;;;-80
2023/09/04 16:11:27;;;;;;;;;;;;;;;27.21;44.83301;102423.6;;;;-80
2023/09/04 16:16:27;;;;;;;;;;;;;;;26.75;45.76367;102422.2;;;;-80
2023/09/04 16:21:28;;;;;;;;;;;;;;;26.66;47.39941;102422.4;;;;-80
2023/09/04 16:26:30;;;;;;;;;;;;;;;26.47;47.90039;102423.4;;;;-79
2023/09/04 16:28:22;;;;;;;5.1;2.7;;;;;;;;;;;;;-80
2023/09/04 16:31:29;;;;;;;;;;;;;;;26.3;50.29004;102420;;;;-81
2023/09/04 16:36:27;;;;;;;;;;;;;;;26.18;49.12012;102418.1;;;;-80
2023/09/04 16:41:29;;;;;;;;;;;;;;;25.78;50.09375;102421.6;;;;-80
2023/09/04 16:46:30;;;;;;;;;;;;;;;25.65;50.05664;102419.2;;;;-79
2023/09/04 16:51:26;;;;;;;;;;;;;;;25.38;50.28027;102409.2;;;;-79
2023/09/04 16:56:49;;;;;;;;;;;;;;;25.13;51.33789;102400.8;;;;-82
2023/09/04 16:58:25;;;;;;;3.4;2.3;;;;;;;;;;;;;-83
2023/09/04 17:01:28;;;;;;;;;;;;;;;25;51.55371;102392.9;;;;-80
2023/09/04 17:06:26;;;;;;;;;;;;;;;24.74;51.92578;102390.1;;;;-80
2023/09/04 17:11:26;;;;;;;;;;;;;;;24.5;53.4082;102383.8;;;;-78
2023/09/04 17:16:26;;;;;;;;;;;;;;;24.23;54.23828;102376.1;;;;-80
2023/09/04 17:21:26;;;;;;;;;;;;;;;24;55.03711;102371.7;;;;-80
2023/09/04 17:26:29;;;;;;;;;;;;;;;23.78;56.06738;102373.8;;;;-83
2023/09/04 17:28:27;;;;;;;5.7;2.9;;;;;;;;;;;;;-82
2023/09/04 17:31:26;;;;;;;;;;;;;;;23.63;56.8877;102362.8;;;;-79
2023/09/04 17:36:26;;;;;;;;;;;;;;;23.48;57.74121;102356.5;;;;-81
2023/09/04 17:41:28;;;;;;;;;;;;;;;23.26;58.84668;102358.5;;;;-82
2023/09/04 17:46:26;;;;;;;;;;;;;;;23.13;59.75781;102358;;;;-81
2023/09/04 17:51:27;;;;;;;;;;;;;;;22.93;60.7959;102357;;;;-80
2023/09/04 17:56:27;;;;;;;;;;;;;;;22.79;61.49707;102354.1;;;;-82
2023/09/04 17:58:31;;;;;;;4.9;3.1;;;;;;;;;;;;;-82
2023/09/04 18:01:31;;;;;;;;;;;;;;;22.62;62.65137;102348.9;;;;-82
2023/09/04 18:06:26;;;;;;;;;;;;;;;22.46;63.20215;102344.2;;;;-81
2023/09/04 18:11:26;;;;;;;;;;;;;;;22.27;64.33887;102336.7;;;;-82
2023/09/04 18:16:27;;;;;;;;;;;;;;;22.11;65.74316;102342;;;;-81
2023/09/04 18:21:26;;;;;;;;;;;;;;;21.95;67.09961;102342.9;;;;-80
2023/09/04 18:26:26;;;;;;;;;;;;;;;21.8;67.80664;102345.2;;;;-80
2023/09/04 18:28:33;;;;;;;4.5;3.5;;;;;;;;;;;;;-80
2023/09/04 18:31:26;;;;;;;;;;;;;;;21.67;68.48047;102341.8;;;;-80
2023/09/04 18:36:28;;;;;;;;;;;;;;;21.57;68.625;102347.2;;;;-79
2023/09/04 18:41:26;;;;;;;;;;;;;;;21.43;69.28809;102349;;;;-80
2023/09/04 18:46:26;;;;;;;;;;;;;;;21.27;70.61523;102346.7;;;;-80
2023/09/04 18:51:32;;;;;;;;;;;;;;;21.12;71.42188;102335.3;;;;-81
2023/09/04 18:56:32;;;;;;;;;;;;;;;20.92;72.57129;102328;;;;-79
2023/09/04 18:58:43;;;;;;;6.3;3.6;;;;;;;;;;;;;-81
2023/09/04 19:01:31;;;;;;;;;;;;;;;20.82;73.36035;102341.4;;;;-82
2023/09/04 19:06:28;;;;;;;;;;;;;;;20.7;73.06738;102340.8;;;;-81
2023/09/04 19:11:32;;;;;;;;;;;;;;;20.57;74.48828;102344.5;;;;-79
2023/09/04 19:16:27;;;;;;;;;;;;;;;20.46;74.87695;102344.4;;;;-80
2023/09/04 19:21:27;;;;;;;;;;;;;;;20.32;75.63574;102342.3;;;;-79
2023/09/04 19:26:28;;;;;;;;;;;;;;;20.22;75.43848;102346.4;;;;-80
2023/09/04 19:28:41;;;;;;;6.2;3.8;;;;;;;;;;;;;-80
2023/09/04 19:31:28;;;;;;;;;;;;;;;20.11;74.33105;102348.1;;;;-80
2023/09/04 19:36:35;;;;;;;;;;;;;;;19.99;77.08789;102345;;;;-80
2023/09/04 19:41:26;;;;;;;;;;;;;;;19.89;78.52832;102340.1;;;;-80
2023/09/04 19:46:26;;;;;;;;;;;;;;;19.84;79.875;102329.9;;;;-79
2023/09/04 19:51:33;;;;;;;;;;;;;;;19.77;80.99414;102319;;;;-80
2023/09/04 19:56:28;;;;;;;;;;;;;;;19.77;81.83008;102319.5;;;;-79
2023/09/04 19:58:44;;;;;;;6.8;4.2;;;;;;;;;;;;;-80
2023/09/04 20:01:26;;;;;;;;;;;;;;;19.67;82.6582;102323.4;;;;-81
2023/09/04 20:06:26;;;;;;;;;;;;;;;19.56;81.06836;102324.6;;;;-82
2023/09/04 20:11:27;;;;;;;;;;;;;;;19.43;80.02832;102321.3;;;;-80
2023/09/04 20:16:26;;;;;;;;;;;;;;;19.35;84.83203;102321.3;;;;-80
2023/09/04 20:21:27;;;;;;;;;;;;;;;19.25;88.23828;102324.6;;;;-81
2023/09/04 20:26:27;;;;;;;;;;;;;;;19.15;87.43066;102321.7;;;;-80
2023/09/04 20:28:49;;;;;;;6.7;4.5;;;;;;;;;;;;;-80
2023/09/04 20:31:28;;;;;;;;;;;;;;;19.08;89.1377;102312.7;;;;-80
2023/09/04 20:36:26;;;;;;;;;;;;;;;19.07;88.13477;102305.8;;;;-77
2023/09/04 20:41:27;;;;;;;;;;;;;;;19.07;87.37988;102304.5;;;;-81
2023/09/04 20:46:34;;;;;;;;;;;;;;;19.05;86.83691;102307.3;;;;-81
2023/09/04 20:51:28;;;;;;;;;;;;;;;19.02;85.11719;102308.7;;;;-80
2023/09/04 20:56:35;;;;;;;;;;;;;;;18.95;86.45703;102301.8;;;;-81
2023/09/04 20:58:50;;;;;;;7.5;4;;;;;;;;;;;;;-82
2023/09/04 21:01:28;;;;;;;;;;;;;;;18.86;86.58496;102297.1;;;;-80
2023/09/04 21:06:27;;;;;;;;;;;;;;;18.78;87.97559;102289.4;;;;-83
2023/09/04 23:26:40;;;;;;;;;;;;;;;17.88;98.17773;102244.6;;;;-84
2023/09/04 23:29:08;;;;;;;8.9;6.2;;;;;;;;;;;;;-80
2023/09/04 23:31:30;;;;;;;;;;;;;;;17.85;98.09277;102249.7;;;;-82
2023/09/04 23:36:47;;;;;;;;;;;;;;;17.78;97.27148;102255.7;;;;-82
2023/09/04 23:46:38;;;;;;;;;;;;;;;17.64;99.44531;102254.8;;;;-81
2023/09/04 23:51:39;;;;;;;;;;;;;;;17.57;100;102253.4;;;;-80
2023/09/04 23:56:38;;;;;;;;;;;;;;;17.51;100;102248.6;;;;-81
